sensor_id;sensor_type;location;lat;lon;timestamp;P1;durP1;ratioP1;P2;durP2;ratioP2
14187;SDS011;7175;51.978;5.330;2022-09-09T00:00:47;95.23;;;89.33;;
14187;SDS011;7175;51.978;5.330;2022-09-09T00:03:30;97.53;;;91.43;;
14187;SDS011;7175;51.978;5.330;2022-09-09T00:06:08;97.63;;;91.53;;
14187;SDS011;7175;51.978;5.330;2022-09-09T00:09:02;99.57;;;93.37;;
14187;SDS011;7175;51.978;5.330;2022-09-09T00:11:52;99.17;;;92.97;;
14187;SDS011;7175;51.978;5.330;2022-09-09T00:14:35;96.73;;;90.63;;
14187;SDS011;7175;51.978;5.330;2022-09-09T00:17:12;98.77;;;92.60;;
14187;SDS011;7175;51.978;5.330;2022-09-09T00:19:53;98.97;;;92.77;;
14187;SDS011;7175;51.978;5.330;2022-09-09T00:22:30;94.17;;;88.17;;
14187;SDS011;7175;51.978;5.330;2022-09-09T00:30:17;89.97;;;84.17;;
14187;SDS011;7175;51.978;5.330;2022-09-09T00:32:58;94.70;;;88.67;;
14187;SDS011;7175;51.978;5.330;2022-09-09T00:35:33;91.27;;;85.37;;
14187;SDS011;7175;51.978;5.330;2022-09-09T00:38:09;94.77;;;88.57;;
14187;SDS011;7175;51.978;5.330;2022-09-09T00:40:45;94.93;;;88.73;;
14187;SDS011;7175;51.978;5.330;2022-09-09T00:43:27;94.97;;;88.77;;
14187;SDS011;7175;51.978;5.330;2022-09-09T00:46:11;93.57;;;87.37;;
14187;SDS011;7175;51.978;5.330;2022-09-09T00:48:58;99.20;;;92.80;;
14187;SDS011;7175;51.978;5.330;2022-09-09T00:51:37;101.40;;;94.90;;
14187;SDS011;7175;51.978;5.330;2022-09-09T00:54:20;100.97;;;94.47;;
14187;SDS011;7175;51.978;5.330;2022-09-09T00:57:07;99.10;;;92.70;;
14187;SDS011;7175;51.978;5.330;2022-09-09T00:59:48;101.50;;;95.00;;
14187;SDS011;7175;51.978;5.330;2022-09-09T01:02:25;102.93;;;96.40;;
14187;SDS011;7175;51.978;5.330;2022-09-09T01:07:35;103.43;;;96.83;;
14187;SDS011;7175;51.978;5.330;2022-09-09T01:10:07;103.60;;;97.00;;
14187;SDS011;7175;51.978;5.330;2022-09-09T01:13:00;103.60;;;96.90;;
14187;SDS011;7175;51.978;5.330;2022-09-09T01:15:47;99.93;;;93.43;;
14187;SDS011;7175;51.978;5.330;2022-09-09T01:18:32;101.33;;;94.73;;
14187;SDS011;7175;51.978;5.330;2022-09-09T01:21:17;102.23;;;95.53;;
14187;SDS011;7175;51.978;5.330;2022-09-09T01:24:12;102.17;;;95.47;;
14187;SDS011;7175;51.978;5.330;2022-09-09T01:26:57;101.30;;;94.60;;
14187;SDS011;7175;51.978;5.330;2022-09-09T01:29:29;102.33;;;95.53;;
14187;SDS011;7175;51.978;5.330;2022-09-09T01:38:07;103.93;;;97.13;;
14187;SDS011;7175;51.978;5.330;2022-09-09T01:40:46;102.17;;;95.47;;
14187;SDS011;7175;51.978;5.330;2022-09-09T01:43:18;104.73;;;97.83;;
14187;SDS011;7175;51.978;5.330;2022-09-09T01:45:51;106.17;;;99.17;;
14187;SDS011;7175;51.978;5.330;2022-09-09T01:48:32;105.83;;;98.93;;
14187;SDS011;7175;51.978;5.330;2022-09-09T01:51:07;103.03;;;96.33;;
14187;SDS011;7175;51.978;5.330;2022-09-09T01:56:33;106.93;;;99.40;;
14187;SDS011;7175;51.978;5.330;2022-09-09T01:59:27;106.37;;;99.17;;
14187;SDS011;7175;51.978;5.330;2022-09-09T02:02:23;107.50;;;100.10;;
14187;SDS011;7175;51.978;5.330;2022-09-09T02:07:52;107.67;;;100.47;;
14187;SDS011;7175;51.978;5.330;2022-09-09T02:10:30;106.90;;;99.73;;
14187;SDS011;7175;51.978;5.330;2022-09-09T02:13:12;105.27;;;98.13;;
14187;SDS011;7175;51.978;5.330;2022-09-09T02:15:51;108.07;;;100.77;;
14187;SDS011;7175;51.978;5.330;2022-09-09T02:18:27;105.73;;;98.53;;
14187;SDS011;7175;51.978;5.330;2022-09-09T02:23:33;109.07;;;101.57;;
14187;SDS011;7175;51.978;5.330;2022-09-09T02:26:05;108.40;;;100.90;;
14187;SDS011;7175;51.978;5.330;2022-09-09T02:28:36;109.03;;;101.57;;
14187;SDS011;7175;51.978;5.330;2022-09-09T02:31:16;108.43;;;101.03;;
14187;SDS011;7175;51.978;5.330;2022-09-09T02:33:55;110.47;;;102.87;;
14187;SDS011;7175;51.978;5.330;2022-09-09T02:36:33;109.27;;;101.77;;
14187;SDS011;7175;51.978;5.330;2022-09-09T02:41:43;108.80;;;101.30;;
14187;SDS011;7175;51.978;5.330;2022-09-09T02:44:18;106.93;;;99.47;;
14187;SDS011;7175;51.978;5.330;2022-09-09T02:47:00;107.77;;;100.27;;
14187;SDS011;7175;51.978;5.330;2022-09-09T02:49:55;112.27;;;104.37;;
14187;SDS011;7175;51.978;5.330;2022-09-09T02:52:44;115.63;;;107.53;;
14187;SDS011;7175;51.978;5.330;2022-09-09T02:55:17;112.77;;;104.57;;
14187;SDS011;7175;51.978;5.330;2022-09-09T02:57:52;112.53;;;104.23;;
14187;SDS011;7175;51.978;5.330;2022-09-09T03:00:25;110.10;;;102.10;;
14187;SDS011;7175;51.978;5.330;2022-09-09T03:03:01;109.20;;;101.43;;
14187;SDS011;7175;51.978;5.330;2022-09-09T03:05:31;113.73;;;105.63;;
14187;SDS011;7175;51.978;5.330;2022-09-09T03:13:15;111.67;;;104.07;;
14187;SDS011;7175;51.978;5.330;2022-09-09T03:15:47;114.07;;;106.30;;
14187;SDS011;7175;51.978;5.330;2022-09-09T03:18:18;112.33;;;104.57;;
14187;SDS011;7175;51.978;5.330;2022-09-09T03:20:46;112.00;;;104.10;;
14187;SDS011;7175;51.978;5.330;2022-09-09T03:23:15;114.07;;;106.27;;
14187;SDS011;7175;51.978;5.330;2022-09-09T03:28:23;112.80;;;104.80;;
14187;SDS011;7175;51.978;5.330;2022-09-09T03:30:58;116.77;;;108.60;;
14187;SDS011;7175;51.978;5.330;2022-09-09T03:33:29;116.80;;;108.40;;
14187;SDS011;7175;51.978;5.330;2022-09-09T03:35:57;118.00;;;109.90;;
14187;SDS011;7175;51.978;5.330;2022-09-09T03:38:26;116.37;;;108.27;;
14187;SDS011;7175;51.978;5.330;2022-09-09T03:40:56;114.80;;;106.80;;
14187;SDS011;7175;51.978;5.330;2022-09-09T03:43:25;115.20;;;107.20;;
14187;SDS011;7175;51.978;5.330;2022-09-09T03:45:54;114.20;;;106.40;;
14187;SDS011;7175;51.978;5.330;2022-09-09T03:48:23;117.20;;;109.30;;
14187;SDS011;7175;51.978;5.330;2022-09-09T03:50:56;114.33;;;106.57;;
14187;SDS011;7175;51.978;5.330;2022-09-09T03:56:09;115.60;;;107.70;;
14187;SDS011;7175;51.978;5.330;2022-09-09T03:58:44;115.53;;;107.73;;
14187;SDS011;7175;51.978;5.330;2022-09-09T04:01:18;113.43;;;105.77;;
14187;SDS011;7175;51.978;5.330;2022-09-09T04:03:53;114.33;;;106.53;;
14187;SDS011;7175;51.978;5.330;2022-09-09T04:06:27;115.77;;;107.97;;
14187;SDS011;7175;51.978;5.330;2022-09-09T04:09:03;114.67;;;106.97;;
14187;SDS011;7175;51.978;5.330;2022-09-09T04:11:37;112.57;;;105.00;;
14187;SDS011;7175;51.978;5.330;2022-09-09T04:19:38;109.50;;;102.10;;
14187;SDS011;7175;51.978;5.330;2022-09-09T04:22:09;112.67;;;105.07;;
14187;SDS011;7175;51.978;5.330;2022-09-09T04:24:39;111.60;;;104.10;;
14187;SDS011;7175;51.978;5.330;2022-09-09T04:27:24;110.77;;;103.37;;
14187;SDS011;7175;51.978;5.330;2022-09-09T04:30:01;114.07;;;106.47;;
14187;SDS011;7175;51.978;5.330;2022-09-09T04:32:37;108.40;;;101.20;;
14187;SDS011;7175;51.978;5.330;2022-09-09T04:35:18;106.23;;;99.13;;
14187;SDS011;7175;51.978;5.330;2022-09-09T04:40:35;110.83;;;103.40;;
14187;SDS011;7175;51.978;5.330;2022-09-09T04:43:14;106.27;;;99.17;;
14187;SDS011;7175;51.978;5.330;2022-09-09T04:45:51;108.40;;;101.13;;
14187;SDS011;7175;51.978;5.330;2022-09-09T04:48:20;106.57;;;98.93;;
14187;SDS011;7175;51.978;5.330;2022-09-09T04:50:55;105.17;;;98.07;;
14187;SDS011;7175;51.978;5.330;2022-09-09T04:53:27;116.03;;;108.33;;
14187;SDS011;7175;51.978;5.330;2022-09-09T04:56:00;119.67;;;111.63;;
14187;SDS011;7175;51.978;5.330;2022-09-09T04:58:31;116.60;;;108.50;;
14187;SDS011;7175;51.978;5.330;2022-09-09T05:01:06;115.93;;;107.83;;
14187;SDS011;7175;51.978;5.330;2022-09-09T05:03:36;114.17;;;106.27;;
14187;SDS011;7175;51.978;5.330;2022-09-09T05:06:05;113.83;;;105.93;;
14187;SDS011;7175;51.978;5.330;2022-09-09T05:08:38;116.60;;;108.30;;
14187;SDS011;7175;51.978;5.330;2022-09-09T05:11:13;110.70;;;102.97;;
14187;SDS011;7175;51.978;5.330;2022-09-09T05:13:46;113.47;;;105.47;;
14187;SDS011;7175;51.978;5.330;2022-09-09T05:16:17;109.20;;;101.30;;
14187;SDS011;7175;51.978;5.330;2022-09-09T05:18:54;108.90;;;101.10;;
14187;SDS011;7175;51.978;5.330;2022-09-09T05:21:24;106.97;;;99.17;;
14187;SDS011;7175;51.978;5.330;2022-09-09T05:23:59;101.57;;;93.97;;
14187;SDS011;7175;51.978;5.330;2022-09-09T05:26:27;100.93;;;93.53;;
14187;SDS011;7175;51.978;5.330;2022-09-09T05:28:57;105.70;;;97.90;;
14187;SDS011;7175;51.978;5.330;2022-09-09T05:31:35;103.60;;;95.60;;
14187;SDS011;7175;51.978;5.330;2022-09-09T05:34:05;111.50;;;101.33;;
14187;SDS011;7175;51.978;5.330;2022-09-09T05:36:38;111.53;;;103.37;;
14187;SDS011;7175;51.978;5.330;2022-09-09T05:39:09;113.40;;;105.00;;
14187;SDS011;7175;51.978;5.330;2022-09-09T05:41:38;111.33;;;103.03;;
14187;SDS011;7175;51.978;5.330;2022-09-09T05:44:13;119.10;;;110.60;;
14187;SDS011;7175;51.978;5.330;2022-09-09T05:46:58;124.90;;;116.20;;
14187;SDS011;7175;51.978;5.330;2022-09-09T05:49:27;126.10;;;117.33;;
14187;SDS011;7175;51.978;5.330;2022-09-09T05:57:37;131.63;;;122.47;;
14187;SDS011;7175;51.978;5.330;2022-09-09T06:00:06;132.77;;;123.50;;
14187;SDS011;7175;51.978;5.330;2022-09-09T06:02:52;123.47;;;114.53;;
14187;SDS011;7175;51.978;5.330;2022-09-09T06:05:22;128.30;;;119.20;;
14187;SDS011;7175;51.978;5.330;2022-09-09T06:08:06;116.53;;;107.97;;
14187;SDS011;7175;51.978;5.330;2022-09-09T06:10:36;128.00;;;118.97;;
14187;SDS011;7175;51.978;5.330;2022-09-09T06:13:05;128.60;;;119.70;;
14187;SDS011;7175;51.978;5.330;2022-09-09T06:15:37;124.03;;;115.30;;
14187;SDS011;7175;51.978;5.330;2022-09-09T06:18:06;128.73;;;119.97;;
14187;SDS011;7175;51.978;5.330;2022-09-09T06:20:35;127.87;;;119.07;;
14187;SDS011;7175;51.978;5.330;2022-09-09T06:23:05;136.70;;;126.87;;
14187;SDS011;7175;51.978;5.330;2022-09-09T06:25:34;134.37;;;125.10;;
14187;SDS011;7175;51.978;5.330;2022-09-09T06:28:03;123.57;;;114.87;;
14187;SDS011;7175;51.978;5.330;2022-09-09T06:30:33;133.53;;;124.43;;
14187;SDS011;7175;51.978;5.330;2022-09-09T06:33:01;131.87;;;122.87;;
14187;SDS011;7175;51.978;5.330;2022-09-09T06:35:30;131.63;;;122.70;;
14187;SDS011;7175;51.978;5.330;2022-09-09T06:37:58;120.37;;;111.90;;
14187;SDS011;7175;51.978;5.330;2022-09-09T06:40:26;117.80;;;109.50;;
14187;SDS011;7175;51.978;5.330;2022-09-09T06:42:54;127.23;;;118.57;;
14187;SDS011;7175;51.978;5.330;2022-09-09T06:45:23;120.97;;;112.47;;
14187;SDS011;7175;51.978;5.330;2022-09-09T06:47:51;117.17;;;109.03;;
14187;SDS011;7175;51.978;5.330;2022-09-09T06:50:22;101.07;;;93.83;;
14187;SDS011;7175;51.978;5.330;2022-09-09T06:52:50;95.00;;;88.10;;
14187;SDS011;7175;51.978;5.330;2022-09-09T06:55:18;95.03;;;88.23;;
14187;SDS011;7175;51.978;5.330;2022-09-09T06:57:47;102.13;;;95.03;;
14187;SDS011;7175;51.978;5.330;2022-09-09T07:00:15;109.37;;;101.87;;
14187;SDS011;7175;51.978;5.330;2022-09-09T07:02:45;98.60;;;91.60;;
14187;SDS011;7175;51.978;5.330;2022-09-09T07:05:14;100.13;;;93.23;;
14187;SDS011;7175;51.978;5.330;2022-09-09T07:07:49;98.13;;;91.33;;
14187;SDS011;7175;51.978;5.330;2022-09-09T07:10:18;98.60;;;91.70;;
14187;SDS011;7175;51.978;5.330;2022-09-09T07:12:50;91.53;;;85.13;;
14187;SDS011;7175;51.978;5.330;2022-09-09T07:15:21;80.77;;;74.97;;
14187;SDS011;7175;51.978;5.330;2022-09-09T07:20:28;76.33;;;70.83;;
14187;SDS011;7175;51.978;5.330;2022-09-09T07:25:32;68.00;;;63.20;;
14187;SDS011;7175;51.978;5.330;2022-09-09T07:28:08;73.20;;;68.30;;
14187;SDS011;7175;51.978;5.330;2022-09-09T07:30:52;70.47;;;65.77;;
14187;SDS011;7175;51.978;5.330;2022-09-09T07:33:27;59.53;;;55.53;;
14187;SDS011;7175;51.978;5.330;2022-09-09T07:36:02;58.57;;;54.57;;
14187;SDS011;7175;51.978;5.330;2022-09-09T07:38:32;52.77;;;49.17;;
14187;SDS011;7175;51.978;5.330;2022-09-09T07:41:07;48.37;;;44.97;;
14187;SDS011;7175;51.978;5.330;2022-09-09T07:43:42;40.40;;;37.30;;
14187;SDS011;7175;51.978;5.330;2022-09-09T07:46:31;36.77;;;33.97;;
14187;SDS011;7175;51.978;5.330;2022-09-09T07:49:08;35.90;;;33.20;;
14187;SDS011;7175;51.978;5.330;2022-09-09T07:51:48;35.40;;;32.80;;
14187;SDS011;7175;51.978;5.330;2022-09-09T07:54:18;33.60;;;31.10;;
14187;SDS011;7175;51.978;5.330;2022-09-09T07:57:00;32.20;;;29.80;;
14187;SDS011;7175;51.978;5.330;2022-09-09T08:08:12;29.80;;;27.50;;
14187;SDS011;7175;51.978;5.330;2022-09-09T08:10:42;29.70;;;27.40;;
14187;SDS011;7175;51.978;5.330;2022-09-09T08:13:19;28.67;;;26.37;;
14187;SDS011;7175;51.978;5.330;2022-09-09T08:15:54;27.60;;;25.40;;
14187;SDS011;7175;51.978;5.330;2022-09-09T08:18:28;29.23;;;26.40;;
14187;SDS011;7175;51.978;5.330;2022-09-09T08:23:53;27.57;;;25.37;;
14187;SDS011;7175;51.978;5.330;2022-09-09T08:26:26;27.40;;;25.20;;
14187;SDS011;7175;51.978;5.330;2022-09-09T08:28:58;26.83;;;24.73;;
14187;SDS011;7175;51.978;5.330;2022-09-09T08:31:30;25.90;;;23.80;;
14187;SDS011;7175;51.978;5.330;2022-09-09T08:34:03;26.37;;;24.27;;
14187;SDS011;7175;51.978;5.330;2022-09-09T08:36:45;26.20;;;24.10;;
14187;SDS011;7175;51.978;5.330;2022-09-09T08:39:18;27.07;;;24.87;;
14187;SDS011;7175;51.978;5.330;2022-09-09T08:41:55;27.00;;;24.80;;
14187;SDS011;7175;51.978;5.330;2022-09-09T08:44:56;26.97;;;24.80;;
14187;SDS011;7175;51.978;5.330;2022-09-09T08:47:33;24.93;;;22.93;;
14187;SDS011;7175;51.978;5.330;2022-09-09T08:50:13;25.87;;;23.77;;
14187;SDS011;7175;51.978;5.330;2022-09-09T08:53:05;25.50;;;23.40;;
14187;SDS011;7175;51.978;5.330;2022-09-09T08:55:41;27.03;;;24.93;;
14187;SDS011;7175;51.978;5.330;2022-09-09T08:58:15;28.63;;;26.43;;
14187;SDS011;7175;51.978;5.330;2022-09-09T09:01:00;29.40;;;26.80;;
14187;SDS011;7175;51.978;5.330;2022-09-09T09:03:57;26.37;;;24.27;;
14187;SDS011;7175;51.978;5.330;2022-09-09T09:06:49;26.90;;;24.80;;
14187;SDS011;7175;51.978;5.330;2022-09-09T09:09:42;25.60;;;23.50;;
14187;SDS011;7175;51.978;5.330;2022-09-09T09:12:20;24.30;;;22.20;;
14187;SDS011;7175;51.978;5.330;2022-09-09T09:14:50;26.80;;;24.70;;
14187;SDS011;7175;51.978;5.330;2022-09-09T09:22:55;25.67;;;23.57;;
14187;SDS011;7175;51.978;5.330;2022-09-09T09:25:33;24.40;;;22.40;;
14187;SDS011;7175;51.978;5.330;2022-09-09T09:28:15;24.33;;;22.33;;
14187;SDS011;7175;51.978;5.330;2022-09-09T09:34:13;24.63;;;22.57;;
14187;SDS011;7175;51.978;5.330;2022-09-09T09:36:52;24.27;;;22.27;;
14187;SDS011;7175;51.978;5.330;2022-09-09T09:39:36;24.77;;;22.77;;
14187;SDS011;7175;51.978;5.330;2022-09-09T09:42:35;23.53;;;21.53;;
14187;SDS011;7175;51.978;5.330;2022-09-09T09:45:14;24.37;;;22.37;;
14187;SDS011;7175;51.978;5.330;2022-09-09T09:48:00;23.70;;;21.80;;
14187;SDS011;7175;51.978;5.330;2022-09-09T09:50:34;23.47;;;21.57;;
14187;SDS011;7175;51.978;5.330;2022-09-09T09:53:04;23.33;;;21.43;;
14187;SDS011;7175;51.978;5.330;2022-09-09T09:55:34;23.27;;;21.37;;
14187;SDS011;7175;51.978;5.330;2022-09-09T10:01:18;22.77;;;20.87;;
14187;SDS011;7175;51.978;5.330;2022-09-09T10:03:52;23.67;;;21.67;;
14187;SDS011;7175;51.978;5.330;2022-09-09T10:09:18;23.70;;;21.70;;
14187;SDS011;7175;51.978;5.330;2022-09-09T10:11:54;22.73;;;20.83;;
14187;SDS011;7175;51.978;5.330;2022-09-09T10:14:32;23.40;;;21.40;;
14187;SDS011;7175;51.978;5.330;2022-09-09T10:17:11;24.37;;;22.37;;
14187;SDS011;7175;51.978;5.330;2022-09-09T10:19:51;24.30;;;22.30;;
14187;SDS011;7175;51.978;5.330;2022-09-09T10:22:34;25.10;;;23.00;;
14187;SDS011;7175;51.978;5.330;2022-09-09T10:25:11;27.10;;;24.90;;
14187;SDS011;7175;51.978;5.330;2022-09-09T10:27:53;28.30;;;26.10;;
14187;SDS011;7175;51.978;5.330;2022-09-09T10:30:44;30.97;;;28.47;;
14187;SDS011;7175;51.978;5.330;2022-09-09T10:33:23;31.43;;;28.93;;
14187;SDS011;7175;51.978;5.330;2022-09-09T10:36:02;31.43;;;28.93;;
14187;SDS011;7175;51.978;5.330;2022-09-09T10:38:41;34.17;;;31.47;;
14187;SDS011;7175;51.978;5.330;2022-09-09T10:41:16;35.17;;;32.37;;
14187;SDS011;7175;51.978;5.330;2022-09-09T10:43:57;40.43;;;37.23;;
14187;SDS011;7175;51.978;5.330;2022-09-09T10:46:52;42.63;;;39.33;;
14187;SDS011;7175;51.978;5.330;2022-09-09T10:49:40;38.83;;;35.83;;
14187;SDS011;7175;51.978;5.330;2022-09-09T10:52:29;34.30;;;31.60;;
14187;SDS011;7175;51.978;5.330;2022-09-09T10:55:07;31.10;;;28.50;;
14187;SDS011;7175;51.978;5.330;2022-09-09T10:57:42;27.13;;;24.93;;
14187;SDS011;7175;51.978;5.330;2022-09-09T11:00:17;27.73;;;25.43;;
14187;SDS011;7175;51.978;5.330;2022-09-09T11:02:50;27.07;;;24.87;;
14187;SDS011;7175;51.978;5.330;2022-09-09T11:05:25;23.73;;;21.67;;
14187;SDS011;7175;51.978;5.330;2022-09-09T11:08:00;23.17;;;21.17;;
14187;SDS011;7175;51.978;5.330;2022-09-09T11:10:34;23.53;;;21.53;;
14187;SDS011;7175;51.978;5.330;2022-09-09T11:13:09;24.03;;;21.93;;
14187;SDS011;7175;51.978;5.330;2022-09-09T11:15:43;22.23;;;20.30;;
14187;SDS011;7175;51.978;5.330;2022-09-09T11:18:22;22.10;;;20.20;;
14187;SDS011;7175;51.978;5.330;2022-09-09T11:20:53;22.23;;;20.33;;
14187;SDS011;7175;51.978;5.330;2022-09-09T11:23:27;21.60;;;19.70;;
14187;SDS011;7175;51.978;5.330;2022-09-09T11:26:10;22.40;;;20.40;;
14187;SDS011;7175;51.978;5.330;2022-09-09T11:28:50;21.93;;;20.03;;
14187;SDS011;7175;51.978;5.330;2022-09-09T11:31:38;21.33;;;19.50;;
14187;SDS011;7175;51.978;5.330;2022-09-09T11:34:17;22.17;;;20.27;;
14187;SDS011;7175;51.978;5.330;2022-09-09T11:37:00;22.00;;;20.10;;
14187;SDS011;7175;51.978;5.330;2022-09-09T11:39:47;22.30;;;20.40;;
14187;SDS011;7175;51.978;5.330;2022-09-09T11:42:29;23.40;;;21.50;;
14187;SDS011;7175;51.978;5.330;2022-09-09T11:45:07;24.20;;;22.20;;
14187;SDS011;7175;51.978;5.330;2022-09-09T11:47:38;23.37;;;21.47;;
14187;SDS011;7175;51.978;5.330;2022-09-09T11:50:09;23.97;;;21.97;;
14187;SDS011;7175;51.978;5.330;2022-09-09T11:53:02;24.30;;;22.20;;
14187;SDS011;7175;51.978;5.330;2022-09-09T11:58:40;29.27;;;26.87;;
14187;SDS011;7175;51.978;5.330;2022-09-09T12:01:16;28.60;;;26.20;;
14187;SDS011;7175;51.978;5.330;2022-09-09T12:04:15;29.50;;;27.10;;
14187;SDS011;7175;51.978;5.330;2022-09-09T12:06:52;30.03;;;27.53;;
14187;SDS011;7175;51.978;5.330;2022-09-09T12:09:25;30.83;;;28.23;;
14187;SDS011;7175;51.978;5.330;2022-09-09T12:12:29;31.83;;;29.23;;
14187;SDS011;7175;51.978;5.330;2022-09-09T12:15:15;35.67;;;32.87;;
14187;SDS011;7175;51.978;5.330;2022-09-09T12:17:47;38.20;;;35.27;;
14187;SDS011;7175;51.978;5.330;2022-09-09T12:20:19;36.93;;;34.13;;
14187;SDS011;7175;51.978;5.330;2022-09-09T12:22:54;34.80;;;32.10;;
14187;SDS011;7175;51.978;5.330;2022-09-09T12:25:48;31.57;;;29.07;;
14187;SDS011;7175;51.978;5.330;2022-09-09T12:28:37;27.87;;;25.57;;
14187;SDS011;7175;51.978;5.330;2022-09-09T12:31:13;26.90;;;24.70;;
14187;SDS011;7175;51.978;5.330;2022-09-09T12:33:48;27.23;;;25.03;;
14187;SDS011;7175;51.978;5.330;2022-09-09T12:36:21;25.93;;;23.83;;
14187;SDS011;7175;51.978;5.330;2022-09-09T12:38:54;26.97;;;24.77;;
14187;SDS011;7175;51.978;5.330;2022-09-09T12:41:27;25.73;;;23.73;;
14187;SDS011;7175;51.978;5.330;2022-09-09T12:44:03;26.00;;;23.90;;
14187;SDS011;7175;51.978;5.330;2022-09-09T12:46:34;25.67;;;23.57;;
14187;SDS011;7175;51.978;5.330;2022-09-09T12:49:03;25.90;;;23.80;;
14187;SDS011;7175;51.978;5.330;2022-09-09T12:51:32;25.77;;;23.67;;
14187;SDS011;7175;51.978;5.330;2022-09-09T12:54:05;27.33;;;25.03;;
14187;SDS011;7175;51.978;5.330;2022-09-09T12:56:33;26.50;;;24.30;;
14187;SDS011;7175;51.978;5.330;2022-09-09T12:59:02;26.63;;;24.43;;
14187;SDS011;7175;51.978;5.330;2022-09-09T13:01:31;27.50;;;25.20;;
14187;SDS011;7175;51.978;5.330;2022-09-09T13:04:00;28.60;;;26.20;;
14187;SDS011;7175;51.978;5.330;2022-09-09T13:06:29;28.37;;;26.07;;
14187;SDS011;7175;51.978;5.330;2022-09-09T13:08:59;29.63;;;27.23;;
14187;SDS011;7175;51.978;5.330;2022-09-09T13:11:30;28.73;;;26.43;;
14187;SDS011;7175;51.978;5.330;2022-09-09T13:14:04;30.67;;;28.27;;
14187;SDS011;7175;51.978;5.330;2022-09-09T13:16:34;28.23;;;26.03;;
14187;SDS011;7175;51.978;5.330;2022-09-09T13:19:08;27.47;;;25.27;;
14187;SDS011;7175;51.978;5.330;2022-09-09T13:21:41;28.33;;;26.03;;
14187;SDS011;7175;51.978;5.330;2022-09-09T13:24:21;27.77;;;25.57;;
14187;SDS011;7175;51.978;5.330;2022-09-09T13:26:56;26.27;;;24.17;;
14187;SDS011;7175;51.978;5.330;2022-09-09T13:29:28;26.43;;;24.33;;
14187;SDS011;7175;51.978;5.330;2022-09-09T13:32:03;27.40;;;25.20;;
14187;SDS011;7175;51.978;5.330;2022-09-09T13:34:33;27.60;;;25.40;;
14187;SDS011;7175;51.978;5.330;2022-09-09T13:37:02;27.97;;;25.77;;
14187;SDS011;7175;51.978;5.330;2022-09-09T13:39:33;28.80;;;26.50;;
14187;SDS011;7175;51.978;5.330;2022-09-09T13:42:04;27.00;;;24.80;;
14187;SDS011;7175;51.978;5.330;2022-09-09T13:44:34;26.10;;;23.90;;
14187;SDS011;7175;51.978;5.330;2022-09-09T13:47:05;24.93;;;22.83;;
14187;SDS011;7175;51.978;5.330;2022-09-09T13:49:45;25.97;;;23.87;;
14187;SDS011;7175;51.978;5.330;2022-09-09T13:52:15;24.73;;;22.73;;
14187;SDS011;7175;51.978;5.330;2022-09-09T13:54:46;24.50;;;22.50;;
14187;SDS011;7175;51.978;5.330;2022-09-09T13:57:19;25.20;;;23.10;;
14187;SDS011;7175;51.978;5.330;2022-09-09T13:59:48;24.67;;;22.67;;
14187;SDS011;7175;51.978;5.330;2022-09-09T14:02:31;23.30;;;21.40;;
14187;SDS011;7175;51.978;5.330;2022-09-09T14:05:00;24.60;;;22.60;;
14187;SDS011;7175;51.978;5.330;2022-09-09T14:07:28;24.03;;;22.13;;
14187;SDS011;7175;51.978;5.330;2022-09-09T14:09:56;24.00;;;22.10;;
14187;SDS011;7175;51.978;5.330;2022-09-09T14:12:26;23.63;;;21.73;;
14187;SDS011;7175;51.978;5.330;2022-09-09T14:14:55;22.60;;;20.70;;
14187;SDS011;7175;51.978;5.330;2022-09-09T14:17:23;23.00;;;21.10;;
14187;SDS011;7175;51.978;5.330;2022-09-09T14:19:51;23.37;;;21.47;;
14187;SDS011;7175;51.978;5.330;2022-09-09T14:22:20;24.03;;;22.03;;
14187;SDS011;7175;51.978;5.330;2022-09-09T14:24:48;22.23;;;20.33;;
14187;SDS011;7175;51.978;5.330;2022-09-09T14:27:16;21.80;;;20.00;;
14187;SDS011;7175;51.978;5.330;2022-09-09T14:29:46;21.20;;;19.47;;
14187;SDS011;7175;51.978;5.330;2022-09-09T14:32:14;21.00;;;19.20;;
14187;SDS011;7175;51.978;5.330;2022-09-09T14:34:42;20.33;;;18.63;;
14187;SDS011;7175;51.978;5.330;2022-09-09T14:37:13;20.90;;;19.10;;
14187;SDS011;7175;51.978;5.330;2022-09-09T14:39:41;21.20;;;19.50;;
14187;SDS011;7175;51.978;5.330;2022-09-09T14:42:11;20.50;;;18.80;;
14187;SDS011;7175;51.978;5.330;2022-09-09T14:44:39;21.07;;;19.27;;
14187;SDS011;7175;51.978;5.330;2022-09-09T14:47:09;20.73;;;19.03;;
14187;SDS011;7175;51.978;5.330;2022-09-09T14:49:37;20.63;;;18.93;;
14187;SDS011;7175;51.978;5.330;2022-09-09T14:52:10;20.50;;;18.80;;
14187;SDS011;7175;51.978;5.330;2022-09-09T14:54:47;20.97;;;19.17;;
14187;SDS011;7175;51.978;5.330;2022-09-09T14:57:22;21.23;;;19.43;;
14187;SDS011;7175;51.978;5.330;2022-09-09T14:59:50;21.00;;;19.10;;
14187;SDS011;7175;51.978;5.330;2022-09-09T15:02:30;20.17;;;18.37;;
14187;SDS011;7175;51.978;5.330;2022-09-09T15:04:58;20.53;;;18.73;;
14187;SDS011;7175;51.978;5.330;2022-09-09T15:07:27;20.40;;;18.60;;
14187;SDS011;7175;51.978;5.330;2022-09-09T15:09:55;20.40;;;18.60;;
14187;SDS011;7175;51.978;5.330;2022-09-09T15:12:23;19.87;;;18.17;;
14187;SDS011;7175;51.978;5.330;2022-09-09T15:14:51;20.03;;;18.33;;
14187;SDS011;7175;51.978;5.330;2022-09-09T15:17:24;20.20;;;18.50;;
14187;SDS011;7175;51.978;5.330;2022-09-09T15:19:56;19.93;;;18.23;;
14187;SDS011;7175;51.978;5.330;2022-09-09T15:22:32;19.90;;;18.20;;
14187;SDS011;7175;51.978;5.330;2022-09-09T15:25:03;20.00;;;18.30;;
14187;SDS011;7175;51.978;5.330;2022-09-09T15:27:34;20.00;;;18.30;;
14187;SDS011;7175;51.978;5.330;2022-09-09T15:30:07;20.43;;;18.73;;
14187;SDS011;7175;51.978;5.330;2022-09-09T15:32:37;20.47;;;18.77;;
14187;SDS011;7175;51.978;5.330;2022-09-09T15:35:15;21.10;;;19.30;;
14187;SDS011;7175;51.978;5.330;2022-09-09T15:37:46;21.17;;;19.43;;
14187;SDS011;7175;51.978;5.330;2022-09-09T15:43:12;21.13;;;19.43;;
14187;SDS011;7175;51.978;5.330;2022-09-09T15:45:59;21.40;;;19.60;;
14187;SDS011;7175;51.978;5.330;2022-09-09T15:49:02;20.83;;;19.03;;
14187;SDS011;7175;51.978;5.330;2022-09-09T15:51:38;20.90;;;19.10;;
14187;SDS011;7175;51.978;5.330;2022-09-09T15:54:18;20.67;;;18.87;;
14187;SDS011;7175;51.978;5.330;2022-09-09T15:59:51;21.03;;;19.23;;
14187;SDS011;7175;51.978;5.330;2022-09-09T16:05:05;20.87;;;19.07;;
14187;SDS011;7175;51.978;5.330;2022-09-09T16:07:42;20.80;;;19.00;;
14187;SDS011;7175;51.978;5.330;2022-09-09T16:10:12;21.00;;;19.20;;
14187;SDS011;7175;51.978;5.330;2022-09-09T16:12:59;20.87;;;19.17;;
14187;SDS011;7175;51.978;5.330;2022-09-09T16:15:30;21.13;;;19.33;;
14187;SDS011;7175;51.978;5.330;2022-09-09T16:18:01;21.70;;;19.90;;
14187;SDS011;7175;51.978;5.330;2022-09-09T16:20:43;22.07;;;20.27;;
14187;SDS011;7175;51.978;5.330;2022-09-09T16:23:23;21.77;;;19.97;;
14187;SDS011;7175;51.978;5.330;2022-09-09T16:28:46;21.73;;;19.93;;
14187;SDS011;7175;51.978;5.330;2022-09-09T16:31:23;21.83;;;20.03;;
14187;SDS011;7175;51.978;5.330;2022-09-09T16:34:02;22.20;;;20.40;;
14187;SDS011;7175;51.978;5.330;2022-09-09T16:36:37;22.37;;;20.57;;
14187;SDS011;7175;51.978;5.330;2022-09-09T16:39:10;22.20;;;20.40;;
14187;SDS011;7175;51.978;5.330;2022-09-09T16:41:46;22.93;;;21.03;;
14187;SDS011;7175;51.978;5.330;2022-09-09T16:44:16;22.30;;;20.40;;
14187;SDS011;7175;51.978;5.330;2022-09-09T16:46:46;23.03;;;21.03;;
14187;SDS011;7175;51.978;5.330;2022-09-09T16:49:24;23.00;;;21.00;;